Terminal Aerodrome Forecast
Issued by NWS Sterling, VA

Home | Current Version | Previous Version | Text Only | Print | Product List | Glossary On
Versions: 1 2 3 4 5 6 7 8 9 10 11 12 13 14 15 16 17 18 19 20
000
FTUS41 KLWX 260531
TAFMRB
TAF
KMRB 260531Z 2606/2706 36005KT 3SM BR SCT007 OVC015
     FM261600 34004KT P6SM SCT040
     FM262200 VRB03KT P6SM SCT250
     FM270200 VRB03KT 6SM BR FEW050=

USA.gov is the U.S. government's official web portal to all federal, state and local government web resources and services.